createdAt,value
2022-10-01T00:01:01.079Z,1002.77
2022-10-01T00:01:53.756Z,1002.71
2022-10-01T00:02:54.082Z,1002.68
2022-10-01T00:03:54.319Z,1002.67
2022-10-01T00:04:54.610Z,1002.61
2022-10-01T00:05:54.890Z,1002.64
2022-10-01T00:06:55.171Z,1002.61
2022-10-01T00:07:55.449Z,1002.60
2022-10-01T00:08:55.728Z,1002.64
2022-10-01T00:09:56.011Z,1002.56
2022-10-01T00:10:56.292Z,1002.55
2022-10-01T00:11:56.566Z,1002.50
2022-10-01T00:12:56.842Z,1002.55
2022-10-01T00:14:04.622Z,1002.51
2022-10-01T00:14:57.388Z,1002.46
2022-10-01T00:15:57.630Z,1002.51
2022-10-01T00:16:57.966Z,1002.42
2022-10-01T00:17:58.208Z,1002.40
2022-10-01T00:18:58.487Z,1002.40
2022-10-01T00:19:58.777Z,1002.41
2022-10-01T00:20:59.057Z,1002.38
2022-10-01T00:21:59.325Z,1002.41
2022-10-01T00:22:59.596Z,1002.37
2022-10-01T00:23:59.868Z,1002.39
2022-10-01T00:25:00.163Z,1002.35
2022-10-01T00:26:00.437Z,1002.38
2022-10-01T00:27:00.713Z,1002.37
2022-10-01T00:28:01.022Z,1002.28
2022-10-01T00:29:01.260Z,1002.26
2022-10-01T00:30:01.549Z,1002.25
2022-10-01T00:31:01.876Z,1002.25
2022-10-01T00:32:02.230Z,1002.24
2022-10-01T00:33:02.369Z,1002.22
2022-10-01T00:34:02.639Z,1002.24
2022-10-01T00:35:02.937Z,1002.31
2022-10-01T00:36:03.218Z,1002.30
2022-10-01T00:37:03.498Z,1002.31
2022-10-01T00:38:03.768Z,1002.34
2022-10-01T00:39:04.048Z,1002.36
2022-10-01T00:40:04.348Z,1002.31
2022-10-01T00:41:04.618Z,1002.34
2022-10-01T00:42:04.899Z,1002.34
2022-10-01T00:43:05.188Z,1002.31
2022-10-01T00:44:05.470Z,1002.27
2022-10-01T00:45:05.769Z,1002.31
2022-10-01T00:46:06.014Z,1002.28
2022-10-01T00:47:06.280Z,1002.24
2022-10-01T00:48:06.550Z,1002.26
2022-10-01T00:49:06.831Z,1002.16
2022-10-01T00:50:07.119Z,1002.17
2022-10-01T00:51:07.400Z,1002.18
2022-10-01T00:52:07.689Z,1002.13
2022-10-01T00:53:07.978Z,1002.15
2022-10-01T00:54:08.249Z,1002.15
2022-10-01T00:55:08.540Z,1002.13
2022-10-01T00:56:08.810Z,1002.15
2022-10-01T00:57:09.089Z,1002.19
2022-10-01T00:58:09.372Z,1002.08
2022-10-01T00:59:09.640Z,1002.06
2022-10-01T01:00:09.950Z,1002.08
2022-10-01T01:01:10.220Z,1002.01
2022-10-01T01:02:10.490Z,1002.00
2022-10-01T01:03:10.729Z,1001.97
2022-10-01T01:04:10.997Z,1001.98
2022-10-01T01:05:11.303Z,1002.02
2022-10-01T01:06:11.560Z,1001.96
2022-10-01T01:07:11.842Z,1001.91
2022-10-01T01:08:12.110Z,1001.93
2022-10-01T01:09:12.391Z,1001.90
2022-10-01T01:10:12.693Z,1001.92
2022-10-01T01:11:12.951Z,1001.85
2022-10-01T01:12:13.228Z,1001.86
2022-10-01T01:13:13.500Z,1001.86
2022-10-01T01:14:13.780Z,1001.86
2022-10-01T01:15:14.073Z,1001.87
2022-10-01T01:16:14.404Z,1001.89
2022-10-01T01:17:14.634Z,1001.81
2022-10-01T01:18:14.910Z,1001.83
2022-10-01T01:19:15.181Z,1001.84
2022-10-01T01:20:15.471Z,1001.84
2022-10-01T01:21:15.759Z,1001.82
2022-10-01T01:22:16.040Z,1001.73
2022-10-01T01:23:16.320Z,1001.76
2022-10-01T01:24:16.602Z,1001.75
2022-10-01T01:25:16.890Z,1001.68
2022-10-01T01:26:17.161Z,1001.74
2022-10-01T01:27:17.439Z,1001.74
2022-10-01T01:28:17.793Z,1001.69
2022-10-01T01:29:18.031Z,1001.72
2022-10-01T01:30:18.326Z,1001.72
2022-10-01T01:31:18.672Z,1001.68
2022-10-01T01:32:18.901Z,1001.68
2022-10-01T01:33:19.182Z,1001.66
2022-10-01T01:34:19.472Z,1001.68
2022-10-01T01:35:19.782Z,1001.58
2022-10-01T01:36:20.012Z,1001.61
2022-10-01T01:37:20.281Z,1001.60
2022-10-01T01:38:20.554Z,1001.62
2022-10-01T01:39:20.842Z,1001.57
2022-10-01T01:40:21.136Z,1001.58
2022-10-01T01:41:21.412Z,1001.54
2022-10-01T01:42:21.692Z,1001.48
2022-10-01T01:43:21.964Z,1001.43
2022-10-01T01:44:22.242Z,1001.40
2022-10-01T01:45:22.524Z,1001.39
2022-10-01T01:46:22.908Z,1001.36
2022-10-01T01:47:23.113Z,1001.32
2022-10-01T01:48:23.383Z,1001.35
2022-10-01T01:49:23.665Z,1001.32
2022-10-01T01:50:23.953Z,1001.24
2022-10-01T01:51:24.343Z,1001.24
2022-10-01T01:52:24.583Z,1001.16
2022-10-01T01:53:24.865Z,1001.15
2022-10-01T01:54:25.154Z,1001.10
2022-10-01T01:55:25.445Z,1001.11
2022-10-01T01:56:25.733Z,1001.04
2022-10-01T01:57:26.012Z,1001.05
2022-10-01T01:58:26.301Z,1000.97
2022-10-01T01:59:26.591Z,1000.96
2022-10-01T02:00:26.873Z,1000.92
2022-10-01T02:01:27.269Z,1000.90
2022-10-01T02:02:27.481Z,1000.91
2022-10-01T02:03:27.692Z,1000.87
2022-10-01T02:04:27.963Z,1000.85
2022-10-01T02:05:28.263Z,1000.81
2022-10-01T02:06:28.503Z,1000.78
2022-10-01T02:07:28.774Z,1000.78
2022-10-01T02:08:29.073Z,1000.69
2022-10-01T02:09:41.719Z,1000.68
2022-10-01T02:10:29.729Z,1000.67
2022-10-01T02:11:30.115Z,1000.59
2022-10-01T02:12:30.190Z,1000.61
2022-10-01T02:13:30.500Z,1000.57
2022-10-01T02:14:30.803Z,1000.53
2022-10-01T02:15:31.109Z,1000.49
2022-10-01T02:16:31.409Z,1000.41
2022-10-01T02:17:31.711Z,1000.35
2022-10-01T02:18:32.142Z,1000.36
2022-10-01T02:19:32.299Z,1000.27
2022-10-01T02:20:32.627Z,1000.28
2022-10-01T02:21:33.214Z,1000.25
2022-10-01T02:22:33.200Z,1000.15
2022-10-01T02:23:33.497Z,1000.17
2022-10-01T02:24:33.833Z,1000.15
2022-10-01T02:25:34.107Z,1000.10
2022-10-01T02:26:34.385Z,1000.08
2022-10-01T02:27:34.672Z,1000.02
2022-10-01T02:28:35.047Z,999.96
2022-10-01T02:29:35.221Z,999.95
2022-10-01T02:30:35.491Z,999.93
2022-10-01T02:31:36.310Z,999.83
2022-10-01T02:32:36.051Z,999.83
2022-10-01T02:33:36.350Z,999.83
2022-10-01T02:34:36.700Z,999.74
2022-10-01T02:35:36.940Z,999.80
2022-10-01T02:36:37.261Z,999.74
2022-10-01T02:37:37.501Z,999.74
2022-10-01T02:38:37.791Z,999.73
2022-10-01T02:39:38.081Z,999.71
2022-10-01T02:40:38.360Z,999.73
2022-10-01T02:41:38.620Z,999.64
2022-10-01T02:42:38.876Z,999.63
2022-10-01T02:43:42.732Z,999.66
2022-10-01T02:44:39.479Z,999.61
2022-10-01T02:45:39.822Z,999.56
2022-10-01T02:46:40.053Z,999.62
2022-10-01T02:47:40.300Z,999.63
2022-10-01T02:48:41.565Z,999.55
2022-10-01T02:49:40.883Z,999.51
2022-10-01T02:50:41.169Z,999.48
2022-10-01T02:51:41.424Z,999.54
2022-10-01T02:52:41.684Z,999.50
2022-10-01T02:53:41.939Z,999.49
2022-10-01T02:54:42.190Z,999.52
2022-10-01T02:55:42.481Z,999.46
2022-10-01T02:56:48.560Z,999.53
2022-10-01T02:57:43.991Z,999.46
2022-10-01T02:58:43.314Z,999.39
2022-10-01T02:59:43.570Z,999.37
2022-10-01T03:00:43.841Z,999.49
2022-10-01T03:01:44.112Z,999.38
2022-10-01T03:02:44.366Z,999.40
2022-10-01T03:03:44.600Z,999.48
2022-10-01T03:04:44.869Z,999.44
2022-10-01T03:05:45.143Z,999.45
2022-10-01T03:06:45.394Z,999.48
2022-10-01T03:07:45.645Z,999.46
2022-10-01T03:08:45.931Z,999.40
2022-10-01T03:09:46.291Z,999.48
2022-10-01T03:10:47.042Z,999.42
2022-10-01T03:11:46.858Z,999.44
2022-10-01T03:12:47.152Z,999.51
2022-10-01T03:13:47.403Z,999.53
2022-10-01T03:14:47.663Z,999.50
2022-10-01T03:15:47.969Z,999.54
2022-10-01T03:16:48.183Z,999.55
2022-10-01T03:17:48.441Z,999.45
2022-10-01T03:18:48.704Z,999.46
2022-10-01T03:19:48.963Z,999.40
2022-10-01T03:20:49.252Z,999.40
2022-10-01T03:21:49.485Z,999.38
2022-10-01T03:22:49.778Z,999.47
2022-10-01T03:23:50.022Z,999.41
2022-10-01T03:24:50.313Z,999.39
2022-10-01T03:25:50.564Z,999.46
2022-10-01T03:26:50.814Z,999.48
2022-10-01T03:27:51.152Z,999.49
2022-10-01T03:28:51.372Z,999.53
2022-10-01T03:29:51.652Z,999.60
2022-10-01T03:30:51.973Z,999.56
2022-10-01T03:31:52.284Z,999.59
2022-10-01T03:32:52.523Z,999.64
2022-10-01T03:33:52.765Z,999.62
2022-10-01T03:34:53.052Z,999.60
2022-10-01T03:35:53.334Z,999.55
2022-10-01T03:36:53.574Z,999.51
2022-10-01T03:37:53.863Z,999.53
2022-10-01T03:38:54.130Z,999.63
2022-10-01T03:39:54.413Z,999.64
2022-10-01T03:40:54.732Z,999.57
2022-10-01T03:41:54.993Z,999.51
2022-10-01T03:42:55.244Z,999.49
2022-10-01T03:44:00.239Z,999.45
2022-10-01T03:44:56.735Z,999.46
2022-10-01T03:45:56.079Z,999.48
2022-10-01T03:46:56.324Z,999.40
2022-10-01T03:47:56.572Z,999.47
2022-10-01T03:48:56.894Z,999.41
2022-10-01T03:49:57.154Z,999.36
2022-10-01T03:50:57.455Z,999.35
2022-10-01T03:51:57.713Z,999.27
2022-10-01T03:52:57.964Z,999.31
2022-10-01T03:53:58.206Z,999.32
2022-10-01T03:54:58.502Z,999.29
2022-10-01T03:55:58.774Z,999.23
2022-10-01T03:56:59.025Z,999.25
2022-10-01T03:57:59.274Z,999.28
2022-10-01T03:58:59.564Z,999.32
2022-10-01T03:59:59.826Z,999.31
2022-10-01T04:01:00.154Z,999.25
2022-10-01T04:02:00.563Z,999.26
2022-10-01T04:03:00.749Z,999.31
2022-10-01T04:04:01.038Z,999.27
2022-10-01T04:05:01.335Z,999.32
2022-10-01T04:06:01.652Z,999.15
2022-10-01T04:07:01.928Z,999.27
2022-10-01T04:08:02.192Z,999.26
2022-10-01T04:09:02.485Z,999.25
2022-10-01T04:10:02.821Z,999.32
2022-10-01T04:11:03.075Z,999.21
2022-10-01T04:12:03.344Z,999.15
2022-10-01T04:13:03.595Z,999.18
2022-10-01T04:14:03.905Z,999.21
2022-10-01T04:15:04.195Z,999.18
2022-10-01T04:16:04.491Z,999.21
2022-10-01T04:17:04.766Z,999.21
2022-10-01T04:18:05.064Z,999.20
2022-10-01T04:19:05.372Z,999.21
2022-10-01T04:20:05.643Z,999.17
2022-10-01T04:21:05.955Z,999.17
2022-10-01T04:22:06.218Z,999.17
2022-10-01T04:23:06.474Z,999.12
2022-10-01T04:24:06.797Z,999.12
2022-10-01T04:25:07.056Z,999.13
2022-10-01T04:26:07.325Z,999.15
2022-10-01T04:27:07.621Z,999.14
2022-10-01T04:28:07.954Z,999.12
2022-10-01T04:29:08.173Z,999.11
2022-10-01T04:30:08.437Z,999.13
2022-10-01T04:31:08.771Z,999.11
2022-10-01T04:32:09.036Z,999.15
2022-10-01T04:33:09.332Z,999.09
2022-10-01T04:34:09.606Z,999.10
2022-10-01T04:35:09.889Z,998.99
2022-10-01T04:36:10.196Z,999.06
2022-10-01T04:37:10.488Z,999.07
2022-10-01T04:38:10.786Z,999.01
2022-10-01T04:39:11.089Z,998.88
2022-10-01T04:40:11.358Z,998.78
2022-10-01T04:41:11.666Z,998.66
2022-10-01T04:42:11.927Z,998.60
2022-10-01T04:43:12.286Z,998.56
2022-10-01T04:44:12.613Z,998.49
2022-10-01T04:45:12.836Z,998.30
2022-10-01T04:46:13.314Z,998.02
2022-10-01T04:47:13.435Z,997.70
2022-10-01T04:48:13.767Z,997.76
2022-10-01T04:49:14.051Z,997.89
2022-10-01T04:50:14.348Z,997.74
2022-10-01T04:51:14.675Z,997.80
2022-10-01T04:52:14.939Z,997.87
2022-10-01T04:53:15.219Z,997.82
2022-10-01T04:54:15.527Z,997.97
2022-10-01T04:55:15.789Z,997.96
2022-10-01T04:56:16.088Z,998.07
2022-10-01T04:57:16.347Z,997.98
2022-10-01T04:58:16.656Z,998.12
2022-10-01T04:59:16.918Z,998.10
2022-10-01T05:00:17.225Z,997.99
2022-10-01T05:01:17.580Z,997.94
2022-10-01T05:02:17.870Z,998.09
2022-10-01T05:03:18.155Z,998.30
2022-10-01T05:04:18.417Z,998.37
2022-10-01T05:05:18.722Z,998.29
2022-10-01T05:06:19.008Z,998.35
2022-10-01T05:07:19.287Z,998.45
2022-10-01T05:08:19.591Z,998.56
2022-10-01T05:09:19.819Z,998.53
2022-10-01T05:10:20.130Z,998.64
2022-10-01T05:11:20.424Z,998.60
2022-10-01T05:12:24.389Z,998.62
2022-10-01T05:13:20.918Z,998.51
2022-10-01T05:14:21.251Z,998.57
2022-10-01T05:15:21.508Z,998.62
2022-10-01T05:16:21.872Z,998.55
2022-10-01T05:17:22.110Z,998.59
2022-10-01T05:18:22.458Z,998.64
2022-10-01T05:19:25.278Z,998.61
2022-10-01T05:20:23.967Z,998.58
2022-10-01T05:21:23.322Z,998.62
2022-10-01T05:22:23.600Z,998.61
2022-10-01T05:23:23.915Z,998.63
2022-10-01T05:24:24.182Z,998.62
2022-10-01T05:25:24.571Z,998.60
2022-10-01T05:26:24.826Z,998.57
2022-10-01T05:27:25.107Z,998.57
2022-10-01T05:28:25.453Z,998.50
2022-10-01T05:29:25.689Z,998.51
2022-10-01T05:30:25.847Z,998.50
2022-10-01T05:31:26.207Z,998.48
2022-10-01T05:32:26.478Z,998.54
2022-10-01T05:33:26.661Z,998.50
2022-10-01T05:34:26.958Z,998.49
2022-10-01T05:35:27.222Z,998.55
2022-10-01T05:36:27.490Z,998.56
2022-10-01T05:37:27.821Z,998.55
2022-10-01T05:38:28.091Z,998.54
2022-10-01T05:39:28.353Z,998.57
2022-10-01T05:40:28.776Z,998.57
2022-10-01T05:41:29.051Z,998.49
2022-10-01T05:42:29.316Z,998.53
2022-10-01T05:43:29.471Z,998.53
2022-10-01T05:44:29.722Z,998.53
2022-10-01T05:45:30.139Z,998.49
2022-10-01T05:46:30.303Z,998.58
2022-10-01T05:47:30.664Z,998.50
2022-10-01T05:48:30.843Z,998.53
2022-10-01T05:49:31.095Z,998.53
2022-10-01T05:50:31.605Z,998.52
2022-10-01T05:51:32.031Z,998.54
2022-10-01T05:52:32.007Z,998.59
2022-10-01T05:53:32.284Z,998.57
2022-10-01T05:54:32.560Z,998.59
2022-10-01T05:55:32.868Z,998.53
2022-10-01T05:56:33.169Z,998.53
2022-10-01T05:57:33.576Z,998.57
2022-10-01T05:58:33.757Z,998.55
2022-10-01T05:59:34.018Z,998.60
2022-10-01T06:00:34.334Z,998.64
2022-10-01T06:01:34.876Z,998.66
2022-10-01T06:02:34.971Z,998.64
2022-10-01T06:03:35.148Z,998.61
2022-10-01T06:04:40.315Z,998.69
2022-10-01T06:05:36.680Z,998.68
2022-10-01T06:06:36.030Z,998.72
2022-10-01T06:07:36.289Z,998.73
2022-10-01T06:08:36.583Z,998.65
2022-10-01T06:09:36.913Z,998.68
2022-10-01T06:10:37.197Z,998.65
2022-10-01T06:11:37.579Z,998.64
2022-10-01T06:12:37.755Z,998.66
2022-10-01T06:13:38.047Z,998.65
2022-10-01T06:14:38.329Z,998.64
2022-10-01T06:15:38.654Z,998.62
2022-10-01T06:16:38.992Z,998.65
2022-10-01T06:17:39.269Z,998.67
2022-10-01T06:18:39.535Z,998.66
2022-10-01T06:19:39.858Z,998.67
2022-10-01T06:20:40.159Z,998.73
2022-10-01T06:21:40.528Z,998.74
2022-10-01T06:22:40.696Z,998.71
2022-10-01T06:23:41.022Z,998.79
2022-10-01T06:24:41.306Z,998.77
2022-10-01T06:25:41.576Z,998.75
2022-10-01T06:26:41.933Z,998.81
2022-10-01T06:27:42.268Z,998.80
2022-10-01T06:28:42.527Z,998.75
2022-10-01T06:29:42.871Z,998.78
2022-10-01T06:30:43.147Z,998.77
2022-10-01T06:31:43.463Z,998.79
2022-10-01T06:32:43.739Z,998.72
2022-10-01T06:33:44.039Z,998.73
2022-10-01T06:34:44.356Z,998.75
2022-10-01T06:35:44.655Z,998.78
2022-10-01T06:36:44.978Z,998.73
2022-10-01T06:37:45.287Z,998.78
2022-10-01T06:38:45.600Z,998.75
2022-10-01T06:39:45.911Z,998.74
2022-10-01T06:40:46.190Z,998.75
2022-10-01T06:41:46.544Z,998.78
2022-10-01T06:42:46.840Z,998.77
2022-10-01T06:43:47.124Z,998.83
2022-10-01T06:44:47.422Z,998.81
2022-10-01T06:45:47.741Z,998.88
2022-10-01T06:46:48.041Z,998.89
2022-10-01T06:47:48.351Z,998.97
2022-10-01T06:48:48.898Z,998.98
2022-10-01T06:49:48.931Z,998.98
2022-10-01T06:50:49.197Z,998.97
2022-10-01T06:51:49.723Z,998.92
2022-10-01T06:52:49.848Z,998.97
2022-10-01T06:53:50.143Z,998.99
2022-10-01T06:54:50.421Z,999.01
2022-10-01T06:55:50.699Z,998.97
2022-10-01T06:56:51.068Z,998.95
2022-10-01T06:57:51.278Z,999.00
2022-10-01T06:58:51.629Z,998.93
2022-10-01T06:59:51.897Z,998.98
2022-10-01T07:00:52.293Z,999.00
2022-10-01T07:01:56.170Z,998.99
2022-10-01T07:02:52.945Z,998.91
2022-10-01T07:03:53.203Z,998.93
2022-10-01T07:04:53.558Z,998.92
2022-10-01T07:05:53.731Z,998.99
2022-10-01T07:06:54.084Z,998.99
2022-10-01T07:07:54.238Z,999.02
2022-10-01T07:08:54.545Z,999.02
2022-10-01T07:09:54.839Z,998.98
2022-10-01T07:10:55.169Z,999.01
2022-10-01T07:11:55.452Z,999.03
2022-10-01T07:12:55.811Z,999.02
2022-10-01T07:13:56.002Z,999.04
2022-10-01T07:14:56.275Z,999.02
2022-10-01T07:15:56.555Z,999.06
2022-10-01T07:16:56.858Z,999.04
2022-10-01T07:17:57.199Z,999.05
2022-10-01T07:18:57.479Z,999.02
2022-10-01T07:19:57.808Z,999.02
2022-10-01T07:20:58.193Z,999.05
2022-10-01T07:21:58.686Z,999.04
2022-10-01T07:22:58.811Z,999.03
2022-10-01T07:23:59.088Z,999.06
2022-10-01T07:24:59.283Z,999.06
2022-10-01T07:25:59.732Z,999.03
2022-10-01T07:27:05.069Z,999.09
2022-10-01T07:28:01.297Z,999.06
2022-10-01T07:29:00.534Z,999.03
2022-10-01T07:30:01.241Z,999.05
2022-10-01T07:31:01.172Z,999.11
2022-10-01T07:32:01.555Z,999.13
2022-10-01T07:33:01.713Z,999.11
2022-10-01T07:34:02.071Z,999.03
2022-10-01T07:35:02.437Z,999.06
2022-10-01T07:36:02.641Z,999.11
2022-10-01T07:37:02.953Z,999.08
2022-10-01T07:38:03.261Z,999.06
2022-10-01T07:39:03.550Z,999.12
2022-10-01T07:40:07.313Z,999.08
2022-10-01T07:41:04.204Z,999.12
2022-10-01T07:42:04.534Z,999.11
2022-10-01T07:43:04.845Z,999.13
2022-10-01T07:44:05.145Z,999.19
2022-10-01T07:45:05.474Z,999.17
2022-10-01T07:46:05.897Z,999.20
2022-10-01T07:47:06.143Z,999.22
2022-10-01T07:48:06.434Z,999.20
2022-10-01T07:49:06.744Z,999.24
2022-10-01T07:50:07.061Z,999.21
2022-10-01T07:51:07.356Z,999.22
2022-10-01T07:52:12.370Z,999.16
2022-10-01T07:53:08.954Z,999.17
2022-10-01T07:54:08.183Z,999.21
2022-10-01T07:55:08.495Z,999.13
2022-10-01T07:56:08.789Z,999.17
2022-10-01T07:57:09.141Z,999.15
2022-10-01T07:58:09.403Z,999.18
2022-10-01T07:59:09.764Z,999.19
2022-10-01T08:00:10.083Z,999.17
2022-10-01T08:01:10.398Z,999.15
2022-10-01T08:02:10.741Z,999.18
2022-10-01T08:03:11.013Z,999.22
2022-10-01T08:04:11.313Z,999.25
2022-10-01T08:05:11.602Z,999.21
2022-10-01T08:06:11.945Z,999.24
2022-10-01T08:07:12.268Z,999.23
2022-10-01T08:08:12.575Z,999.26
2022-10-01T08:09:12.893Z,999.23
2022-10-01T08:10:13.223Z,999.34
2022-10-01T08:11:13.502Z,999.30
2022-10-01T08:12:13.823Z,999.30
2022-10-01T08:13:14.133Z,999.25
2022-10-01T08:14:14.434Z,999.26
2022-10-01T08:15:14.813Z,999.32
2022-10-01T08:16:15.068Z,999.29
2022-10-01T08:17:15.327Z,999.35
2022-10-01T08:18:15.516Z,999.31
2022-10-01T08:19:15.782Z,999.35
2022-10-01T08:20:16.169Z,999.43
2022-10-01T08:21:16.470Z,999.38
2022-10-01T08:22:16.776Z,999.41
2022-10-01T08:23:24.008Z,999.36
2022-10-01T08:24:17.291Z,999.39
2022-10-01T08:25:17.578Z,999.35
2022-10-01T08:26:17.877Z,999.37
2022-10-01T08:27:18.581Z,999.33
2022-10-01T08:28:18.719Z,999.35
2022-10-01T08:29:18.871Z,999.37
2022-10-01T08:30:19.202Z,999.42
2022-10-01T08:31:19.561Z,999.45
2022-10-01T08:32:19.845Z,999.43
2022-10-01T08:33:20.151Z,999.41
2022-10-01T08:34:20.371Z,999.37
2022-10-01T08:35:20.617Z,999.38
2022-10-01T08:36:20.969Z,999.45
2022-10-01T08:37:21.256Z,999.46
2022-10-01T08:38:21.550Z,999.49
2022-10-01T08:39:21.883Z,999.48
2022-10-01T08:40:22.185Z,999.46
2022-10-01T08:41:23.327Z,999.48
2022-10-01T08:42:22.812Z,999.41
2022-10-01T08:43:23.121Z,999.50
2022-10-01T08:44:23.432Z,999.50
2022-10-01T08:45:23.794Z,999.49
2022-10-01T08:46:24.043Z,999.51
2022-10-01T08:47:24.404Z,999.52
2022-10-01T08:48:24.689Z,999.52
2022-10-01T08:49:25.019Z,999.53
2022-10-01T08:50:25.334Z,999.48
2022-10-01T08:51:25.600Z,999.53
2022-10-01T08:52:26.005Z,999.54
2022-10-01T08:53:26.250Z,999.56
2022-10-01T08:54:26.591Z,999.54
2022-10-01T08:55:26.948Z,999.57
2022-10-01T08:56:27.100Z,999.63
2022-10-01T08:57:27.527Z,999.61
2022-10-01T08:58:27.730Z,999.58
2022-10-01T08:59:28.073Z,999.62
2022-10-01T09:00:28.384Z,999.65
2022-10-01T09:01:28.705Z,999.63
2022-10-01T09:02:28.970Z,999.67
2022-10-01T09:03:29.304Z,999.63
2022-10-01T09:04:29.657Z,999.67
2022-10-01T09:05:29.872Z,999.72
2022-10-01T09:06:30.254Z,999.69
2022-10-01T09:07:30.591Z,999.68
2022-10-01T09:08:30.889Z,999.68
2022-10-01T09:09:31.215Z,999.71
2022-10-01T09:10:31.556Z,999.77
2022-10-01T09:11:31.946Z,999.75
2022-10-01T09:12:32.076Z,999.74
2022-10-01T09:15:54.982Z,999.82
2022-10-01T09:16:56.978Z,999.78
2022-10-01T09:17:55.595Z,999.80
2022-10-01T09:18:56.734Z,999.80
2022-10-01T09:19:56.185Z,999.85
2022-10-01T09:20:56.548Z,999.87
2022-10-01T09:21:56.878Z,999.89
2022-10-01T09:22:57.209Z,999.96
2022-10-01T09:23:57.501Z,1000.01
2022-10-01T09:24:57.788Z,999.95
2022-10-01T09:25:58.137Z,999.96
2022-10-01T09:26:58.436Z,999.99
2022-10-01T09:28:07.314Z,1000.04
2022-10-01T09:28:59.087Z,1000.03
2022-10-01T09:29:59.397Z,1000.07
2022-10-01T09:30:59.707Z,1000.12
2022-10-01T09:32:00.081Z,1000.08
2022-10-01T09:33:00.289Z,1000.11
2022-10-01T09:34:00.574Z,1000.08
2022-10-01T09:35:04.245Z,1000.07
2022-10-01T09:36:01.213Z,1000.02
2022-10-01T09:37:01.594Z,999.99
2022-10-01T09:38:01.936Z,1000.01
2022-10-01T09:39:02.214Z,1000.01
2022-10-01T09:40:02.559Z,1000.02
2022-10-01T09:41:02.880Z,1000.02
2022-10-01T09:42:03.155Z,999.95
2022-10-01T09:43:03.504Z,1000.09
2022-10-01T09:44:03.806Z,1000.00
2022-10-01T09:45:04.126Z,999.97
2022-10-01T09:46:04.677Z,1000.06
2022-10-01T09:47:04.747Z,1000.06
2022-10-01T09:48:05.124Z,1000.10
2022-10-01T09:49:05.298Z,1000.11
2022-10-01T09:50:05.634Z,1000.05
2022-10-01T09:51:05.968Z,1000.08
2022-10-01T09:52:06.255Z,1000.14
2022-10-01T09:53:06.566Z,1000.08
2022-10-01T09:54:06.854Z,1000.11
2022-10-01T09:55:07.188Z,1000.09
2022-10-01T09:56:07.559Z,1000.17
2022-10-01T09:57:07.877Z,1000.17
2022-10-01T09:58:08.167Z,1000.19
2022-10-01T09:59:08.496Z,1000.22
2022-10-01T10:00:08.821Z,1000.24
2022-10-01T10:01:09.175Z,1000.18
2022-10-01T10:02:09.505Z,1000.19
2022-10-01T10:03:09.837Z,1000.18
2022-10-01T10:04:10.060Z,1000.24
2022-10-01T10:05:10.388Z,1000.16
2022-10-01T10:06:10.718Z,1000.17
2022-10-01T10:07:11.080Z,1000.15
2022-10-01T10:08:11.390Z,1000.14
2022-10-01T10:09:11.681Z,1000.21
2022-10-01T10:10:12.012Z,1000.18
2022-10-01T10:11:12.327Z,1000.20
2022-10-01T10:12:12.617Z,1000.16
2022-10-01T10:13:12.910Z,1000.13
2022-10-01T10:14:13.251Z,1000.17
2022-10-01T10:15:13.530Z,1000.22
2022-10-01T10:16:13.988Z,1000.21
2022-10-01T10:17:14.148Z,1000.08
2022-10-01T10:18:14.378Z,1000.12
2022-10-01T10:19:14.662Z,1000.15
2022-10-01T10:20:15.019Z,1000.15
2022-10-01T10:21:15.211Z,1000.22
2022-10-01T10:22:15.561Z,1000.23
2022-10-01T10:23:15.838Z,1000.24
2022-10-01T10:24:16.217Z,1000.22
2022-10-01T10:25:16.511Z,1000.23
2022-10-01T10:26:16.829Z,1000.31
2022-10-01T10:27:17.123Z,1000.32
2022-10-01T10:28:17.493Z,1000.30
2022-10-01T10:29:17.764Z,1000.28
2022-10-01T10:30:18.121Z,1000.28
2022-10-01T10:31:18.463Z,1000.29
2022-10-01T10:32:18.739Z,1000.34
2022-10-01T10:33:19.044Z,1000.32
2022-10-01T10:34:19.376Z,1000.30
2022-10-01T10:35:19.672Z,1000.28
2022-10-01T10:36:19.956Z,1000.33
2022-10-01T10:37:20.283Z,1000.42
2022-10-01T10:38:20.625Z,1000.38
2022-10-01T10:39:20.935Z,1000.47
2022-10-01T10:40:24.581Z,1000.41
2022-10-01T10:41:22.535Z,1000.47
2022-10-01T10:42:21.748Z,1000.49
2022-10-01T10:43:22.023Z,1000.58
2022-10-01T10:44:22.385Z,1000.51
2022-10-01T10:45:22.693Z,1000.55
2022-10-01T10:46:23.113Z,1000.57
2022-10-01T10:47:23.353Z,1000.54
2022-10-01T10:48:23.651Z,1000.60
2022-10-01T10:49:23.963Z,1000.58
2022-10-01T10:50:24.241Z,1000.66
2022-10-01T10:51:24.594Z,1000.55
2022-10-01T10:52:24.904Z,1000.59
2022-10-01T10:53:25.240Z,1000.63
2022-10-01T10:54:25.555Z,1000.69
2022-10-01T10:55:25.834Z,1000.64
2022-10-01T10:56:26.189Z,1000.60
2022-10-01T10:57:26.515Z,1000.64
2022-10-01T10:58:26.784Z,1000.60
2022-10-01T10:59:27.148Z,1000.66
2022-10-01T11:00:27.425Z,1000.69
2022-10-01T11:01:27.798Z,1000.63
2022-10-01T11:02:28.139Z,1000.65
2022-10-01T11:03:28.414Z,1000.67
2022-10-01T11:04:28.747Z,1000.66
2022-10-01T11:05:29.192Z,1000.73
2022-10-01T11:06:29.463Z,1000.67
2022-10-01T11:07:29.653Z,1000.66
2022-10-01T11:08:29.990Z,1000.69
2022-10-01T11:09:30.307Z,1000.68
2022-10-01T11:10:30.693Z,1000.77
2022-10-01T11:11:30.857Z,1000.78
2022-10-01T11:12:31.210Z,1000.80
2022-10-01T11:13:31.558Z,1000.81
2022-10-01T11:14:31.695Z,1000.73
2022-10-01T11:15:32.083Z,1000.76
2022-10-01T11:16:32.746Z,1000.78
2022-10-01T11:17:32.477Z,1000.79
2022-10-01T11:18:33.003Z,1000.74
2022-10-01T11:19:33.182Z,1000.75
2022-10-01T11:20:33.536Z,1000.74
2022-10-01T11:21:33.691Z,1000.70
2022-10-01T11:22:34.037Z,1000.76
2022-10-01T11:23:34.347Z,1000.77
2022-10-01T11:24:34.665Z,1000.81
2022-10-01T11:25:35.004Z,1000.74
2022-10-01T11:26:35.715Z,1000.77
2022-10-01T11:27:35.592Z,1000.76
2022-10-01T11:28:35.886Z,1000.80
2022-10-01T11:29:36.196Z,1000.78
2022-10-01T11:30:36.552Z,1000.69
2022-10-01T11:31:36.885Z,1000.75
2022-10-01T11:32:37.179Z,1000.68
2022-10-01T11:33:37.500Z,1000.71
2022-10-01T11:34:37.850Z,1000.79
2022-10-01T11:35:38.098Z,1000.73
2022-10-01T11:36:38.449Z,1000.76
2022-10-01T11:37:38.753Z,1000.74
2022-10-01T11:38:39.019Z,1000.73
2022-10-01T11:39:39.404Z,1000.72
2022-10-01T11:40:39.731Z,1000.69
2022-10-01T11:41:40.010Z,1000.70
2022-10-01T11:42:40.321Z,1000.76
2022-10-01T11:43:40.684Z,1000.82
2022-10-01T11:44:41.053Z,1000.77
2022-10-01T11:45:41.199Z,1000.76
2022-10-01T11:46:41.650Z,1000.77
2022-10-01T11:47:41.875Z,1000.79
2022-10-01T11:48:42.122Z,1000.73
2022-10-01T11:49:42.303Z,1000.67
2022-10-01T11:50:42.571Z,1000.75
2022-10-01T11:51:42.915Z,1000.71
2022-10-01T11:52:43.295Z,1000.69
2022-10-01T11:53:43.565Z,1000.72
2022-10-01T11:54:43.894Z,1000.75
2022-10-01T11:55:44.207Z,1000.80
2022-10-01T11:56:44.576Z,1000.82
2022-10-01T11:57:44.765Z,1000.81
2022-10-01T11:58:45.076Z,1000.84
2022-10-01T11:59:45.386Z,1000.84
2022-10-01T12:00:45.678Z,1000.86
2022-10-01T12:01:46.029Z,1000.86
2022-10-01T12:02:46.245Z,1000.81
2022-10-01T12:03:46.548Z,1000.83
2022-10-01T12:04:46.815Z,1000.86
2022-10-01T12:05:47.226Z,1000.93
2022-10-01T12:06:47.398Z,1000.96
2022-10-01T12:07:47.737Z,1000.95
2022-10-01T12:08:48.038Z,1000.97
2022-10-01T12:09:48.341Z,1000.94
2022-10-01T12:10:48.626Z,1001.01
2022-10-01T12:11:48.994Z,1000.95
2022-10-01T12:12:49.338Z,1000.84
2022-10-01T12:13:49.496Z,1000.81
2022-10-01T12:14:49.825Z,1000.85
2022-10-01T12:15:50.269Z,1000.82
2022-10-01T12:16:50.420Z,1000.84
2022-10-01T12:17:50.779Z,1000.91
2022-10-01T12:18:51.152Z,1000.92
2022-10-01T12:19:51.306Z,1000.98
2022-10-01T12:20:51.636Z,1000.96
2022-10-01T12:21:51.983Z,1000.99
2022-10-01T12:22:52.334Z,1000.89
2022-10-01T12:23:52.646Z,1000.89
2022-10-01T12:24:52.931Z,1000.75